Time;durP1;ratioP1;P1;durP2;ratioP2;P2;SDS_P1;SDS_P2;PMS_P1;PMS_P2;Temp;Humidity;BMP_temperature;BMP_pressure;BME280_temperature;BME280_humidity;BME280_pressure;Samples;Min_cycle;Max_cycle;Signal;HPM_P1;HPM_P2
2022/02/07 00:01:28;;;;;;;4.97;1.40;;;6.40;94.00;;;;;;5098075;28;20027;-72
2022/02/07 00:03:59;;;;;;;12.07;2.10;;;6.40;93.80;;;;;;5092555;28;20028;-71
2022/02/07 00:06:25;;;;;;;4.07;1.15;;;6.40;93.90;;;;;;5091464;28;20040;-71
2022/02/07 00:08:52;;;;;;;3.10;0.98;;;6.40;93.90;;;;;;5092225;28;20048;-72
2022/02/07 00:11:18;;;;;;;9.57;2.10;;;6.30;94.20;;;;;;5091978;28;20036;-71
2022/02/07 00:13:45;;;;;;;2.83;1.08;;;6.30;94.40;;;;;;5104851;28;20032;-72
2022/02/07 00:16:11;;;;;;;9.70;2.40;;;6.30;94.50;;;;;;5090016;28;20480;-72
2022/02/07 00:18:38;;;;;;;8.10;2.05;;;6.20;94.60;;;;;;5092120;28;20376;-72
2022/02/07 00:21:04;;;;;;;13.80;2.33;;;6.20;94.60;;;;;;5091758;28;20491;-72
2022/02/07 00:23:30;;;;;;;15.52;3.08;;;6.20;94.70;;;;;;5105048;28;20046;-71
2022/02/07 00:25:56;;;;;;;12.60;3.13;;;6.30;94.70;;;;;;5091902;28;20024;-71
2022/02/07 00:28:22;;;;;;;18.50;3.30;;;6.30;94.60;;;;;;5084311;28;20094;-71
2022/02/07 00:30:48;;;;;;;9.88;1.70;;;6.30;94.60;;;;;;5092003;28;20111;-71
2022/02/07 00:33:14;;;;;;;6.18;1.90;;;6.30;94.70;;;;;;5089244;28;20111;-72
2022/02/07 00:35:40;;;;;;;13.40;2.35;;;6.30;94.60;;;;;;5107513;28;20028;-71
2022/02/07 00:38:11;;;;;;;15.05;2.38;;;6.30;93.90;;;;;;5092399;28;20361;-72
2022/02/07 00:43:26;;;;;;;21.63;3.70;;;6.30;93.80;;;;;;5084984;28;20107;-71
2022/02/07 00:45:55;;;;;;;21.48;4.00;;;6.30;93.90;;;;;;5091962;28;20078;-71
2022/02/07 00:48:24;;;;;;;21.67;3.15;;;6.30;94.00;;;;;;5090667;28;20574;-71
2022/02/07 00:50:55;;;;;;;18.25;5.22;;;6.30;94.10;;;;;;5092056;28;20024;-72
2022/02/07 00:53:24;;;;;;;8.43;1.58;;;6.30;94.10;;;;;;5099378;28;20032;-71
2022/02/07 00:55:51;;;;;;;15.50;2.83;;;6.30;94.20;;;;;;5071978;28;20142;-71
2022/02/07 00:58:17;;;;;;;24.60;4.18;;;6.30;94.00;;;;;;5092766;28;20052;-71
2022/02/07 01:00:43;;;;;;;16.75;3.33;;;6.30;94.10;;;;;;5096025;28;20411;-71
2022/02/07 01:03:09;;;;;;;17.52;2.13;;;6.30;93.80;;;;;;5093281;28;20380;-71
2022/02/07 01:05:36;;;;;;;20.35;3.67;;;6.30;93.90;;;;;;5096060;28;20032;-71
2022/02/07 01:08:09;;;;;;;12.68;3.53;;;6.30;94.00;;;;;;5110588;28;20047;-71
2022/02/07 01:16:12;;;;;;;12.98;2.97;;;6.30;93.80;;;;;;5092191;28;20078;-71
2022/02/07 01:19:38;;;;;;;21.92;3.53;;;6.30;93.90;;;;;;5093979;28;20115;-72
2022/02/07 01:46:03;;;;;;;11.30;2.40;;;6.30;94.10;;;;;;5093001;28;20024;-71
2022/02/07 01:54:24;;;;;;;19.88;3.30;;;6.40;94.20;;;;;;5102430;28;20024;-71
2022/02/07 01:57:00;;;;;;;30.05;6.22;;;6.40;94.20;;;;;;5076692;28;20570;-71
2022/02/07 01:59:27;;;;;;;13.85;2.95;;;6.40;93.90;;;;;;5075897;28;20115;-71
2022/02/07 02:01:53;;;;;;;18.80;3.30;;;6.40;93.90;;;;;;5095581;28;20097;-71
2022/02/07 02:04:19;;;;;;;23.30;2.92;;;6.40;93.90;;;;;;5092136;28;20506;-71
2022/02/07 02:06:47;;;;;;;26.73;4.30;;;6.40;93.70;;;;;;5092529;28;20442;-71
2022/02/07 02:09:21;;;;;;;21.45;3.50;;;6.40;93.90;;;;;;5088374;28;20404;-71
2022/02/07 02:11:47;;;;;;;13.13;2.50;;;6.50;94.00;;;;;;5073629;28;20029;-71
2022/02/07 02:23:04;;;;;;;26.75;3.40;;;6.50;94.30;;;;;;5091694;28;20074;-71
2022/02/07 02:36:10;;;;;;;22.00;3.58;;;6.50;94.70;;;;;;5086208;28;20078;-71
2022/02/07 02:38:50;;;;;;;13.15;3.70;;;6.50;94.80;;;;;;5072324;28;20035;-72
2022/02/07 02:46:47;;;;;;;17.73;3.45;;;6.50;95.00;;;;;;5082074;28;20039;-71
2022/02/07 02:49:15;;;;;;;20.38;3.38;;;6.60;95.10;;;;;;5082959;28;20070;-71
2022/02/07 02:51:41;;;;;;;13.40;2.83;;;6.60;95.00;;;;;;5087173;28;20028;-71
2022/02/07 02:54:07;;;;;;;10.63;1.75;;;6.60;94.70;;;;;;5072998;28;20033;-71
2022/02/07 02:56:34;;;;;;;24.67;3.45;;;6.60;94.70;;;;;;5073296;28;20044;-71
2022/02/07 02:59:04;;;;;;;11.73;2.28;;;6.60;94.70;;;;;;5071733;28;20035;-71
2022/02/07 03:01:33;;;;;;;16.15;3.58;;;6.60;94.70;;;;;;5073845;28;20042;-71
2022/02/07 03:04:11;;;;;;;24.33;4.00;;;6.70;94.70;;;;;;5074851;28;20465;-71
2022/02/07 03:06:40;;;;;;;29.63;4.18;;;6.60;94.70;;;;;;5083752;28;20098;-71
2022/02/07 03:09:13;;;;;;;26.15;4.97;;;6.70;94.80;;;;;;5104333;28;20036;-71
2022/02/07 03:11:40;;;;;;;33.33;3.83;;;6.70;94.60;;;;;;5091987;28;20082;-71
2022/02/07 03:14:06;;;;;;;22.25;4.95;;;6.70;94.50;;;;;;5097558;28;20080;-71
2022/02/07 03:16:41;;;;;;;13.52;2.58;;;6.70;94.50;;;;;;5096840;28;20118;-71
2022/02/07 03:19:16;;;;;;;19.38;3.30;;;6.70;94.60;;;;;;5093110;28;20067;-71
2022/02/07 03:21:44;;;;;;;18.80;3.13;;;6.70;94.50;;;;;;5102276;28;20791;-71
2022/02/07 03:24:11;;;;;;;20.90;3.47;;;6.70;94.50;;;;;;5091818;28;20032;-71
2022/02/07 03:26:46;;;;;;;21.50;3.00;;;6.70;94.80;;;;;;5090611;28;20043;-71
2022/02/07 03:29:20;;;;;;;22.10;3.63;;;6.70;94.80;;;;;;5103978;28;20035;-71
2022/02/07 03:31:47;;;;;;;15.38;2.65;;;6.70;95.00;;;;;;5092894;28;20110;-71
2022/02/07 03:34:19;;;;;;;24.88;3.50;;;6.70;95.00;;;;;;5091188;28;20034;-71
2022/02/07 03:36:49;;;;;;;13.90;2.97;;;6.80;95.10;;;;;;5098814;28;20020;-71
2022/02/07 03:39:17;;;;;;;4.93;1.60;;;6.70;95.10;;;;;;5095869;28;20509;-71
2022/02/07 03:41:43;;;;;;;17.70;4.22;;;6.80;95.30;;;;;;5091653;28;20017;-71
2022/02/07 03:44:08;;;;;;;10.80;2.15;;;6.70;95.10;;;;;;5090371;28;20058;-71
2022/02/07 03:46:35;;;;;;;24.48;4.13;;;6.80;95.30;;;;;;5091575;28;20024;-71
2022/02/07 03:49:03;;;;;;;20.48;3.97;;;6.80;95.20;;;;;;5089213;28;20483;-71
2022/02/07 03:51:32;;;;;;;15.15;2.42;;;6.80;95.20;;;;;;5081176;28;20035;-71
2022/02/07 03:53:57;;;;;;;20.35;3.67;;;6.80;95.30;;;;;;5090535;28;20114;-71
2022/02/07 03:56:24;;;;;;;8.25;1.88;;;6.80;95.30;;;;;;5081790;28;20044;-70
2022/02/07 03:58:50;;;;;;;10.80;3.22;;;6.80;95.30;;;;;;5090073;28;20031;-70
2022/02/07 04:01:22;;;;;;;18.17;2.42;;;6.90;95.40;;;;;;5080724;28;20052;-71
2022/02/07 04:03:49;;;;;;;14.85;2.25;;;6.90;95.40;;;;;;5089026;28;20151;-70
2022/02/07 04:06:18;;;;;;;12.57;2.33;;;6.90;95.30;;;;;;5091973;28;20020;-70
2022/02/07 04:08:58;;;;;;;14.43;2.38;;;6.90;95.30;;;;;;5082902;28;20055;-70
2022/02/07 04:11:40;;;;;;;2.28;0.65;;;6.90;95.30;;;;;;5102129;28;20020;-70
2022/02/07 04:14:06;;;;;;;5.17;0.70;;;6.90;95.30;;;;;;5092538;28;20481;-70
2022/02/07 04:16:37;;;;;;;4.00;1.23;;;7.00;95.30;;;;;;5091116;28;20024;-70
2022/02/07 04:19:18;;;;;;;1.70;0.98;;;7.00;95.20;;;;;;5077252;28;20032;-70
2022/02/07 04:21:46;;;;;;;0.80;0.70;;;7.10;95.20;;;;;;5090558;28;20024;-70
2022/02/07 04:24:18;;;;;;;2.55;0.80;;;7.00;95.20;;;;;;5090992;28;20036;-70
2022/02/07 04:27:06;;;;;;;3.05;0.98;;;7.10;95.30;;;;;;5087788;28;20032;-70
2022/02/07 04:29:33;;;;;;;1.10;0.90;;;7.10;95.20;;;;;;5090620;28;20502;-70
2022/02/07 04:32:00;;;;;;;7.97;1.67;;;7.10;95.10;;;;;;5094428;28;20048;-70
2022/02/07 04:34:26;;;;;;;0.90;0.50;;;7.10;95.10;;;;;;5094809;28;20128;-70
2022/02/07 04:36:56;;;;;;;1.75;0.77;;;7.10;95.00;;;;;;5094929;28;20035;-70
2022/02/07 04:39:22;;;;;;;3.03;0.88;;;7.20;95.00;;;;;;5094028;28;20055;-70
2022/02/07 04:41:53;;;;;;;1.98;0.43;;;7.20;95.00;;;;;;5096291;28;20047;-70
2022/02/07 04:44:25;;;;;;;3.20;0.88;;;7.20;94.90;;;;;;5081012;28;20069;-70
2022/02/07 04:47:12;;;;;;;1.50;1.00;;;7.30;94.90;;;;;;5083141;28;20032;-70
2022/02/07 04:49:59;;;;;;;10.95;1.38;;;7.40;94.80;;;;;;5095588;28;20066;-70
2022/02/07 04:55:06;;;;;;;3.72;1.33;;;7.40;94.90;;;;;;5083336;28;20024;-70
2022/02/07 04:57:48;;;;;;;13.55;2.05;;;7.50;94.70;;;;;;5086837;28;20047;-70
2022/02/07 05:03:03;;;;;;;5.45;1.42;;;7.50;94.40;;;;;;5094590;28;20032;-70
2022/02/07 05:13:52;;;;;;;21.65;2.90;;;7.40;94.50;;;;;;5095805;28;20043;-71
2022/02/07 05:16:29;;;;;;;25.08;3.10;;;7.40;94.50;;;;;;5101808;28;20028;-70
2022/02/07 05:19:04;;;;;;;10.60;1.65;;;7.30;94.50;;;;;;5075888;28;20811;-70
2022/02/07 05:21:51;;;;;;;7.18;1.60;;;7.30;94.50;;;;;;5094790;28;20067;-70
2022/02/07 05:24:32;;;;;;;19.15;3.53;;;7.30;94.60;;;;;;5101572;28;20036;-70
2022/02/07 05:26:58;;;;;;;8.20;2.15;;;7.20;94.60;;;;;;5093744;28;20452;-70
2022/02/07 05:29:39;;;;;;;5.10;1.08;;;7.20;94.60;;;;;;5108087;28;20054;-70
2022/02/07 05:32:26;;;;;;;3.00;0.80;;;7.20;94.70;;;;;;5106938;28;20093;-70
2022/02/07 05:35:00;;;;;;;5.57;1.58;;;7.20;94.70;;;;;;5093808;28;20061;-70
2022/02/07 05:37:38;;;;;;;4.30;1.08;;;7.30;94.70;;;;;;5106826;28;20040;-70
2022/02/07 05:43:16;;;;;;;3.35;0.88;;;7.30;94.90;;;;;;5081435;28;20127;-70
2022/02/07 05:46:11;;;;;;;5.28;0.70;;;7.30;94.50;;;;;;5080225;28;20558;-70
2022/02/07 05:48:55;;;;;;;2.03;1.52;;;7.30;94.40;;;;;;5082720;28;20043;-70
2022/02/07 05:51:46;;;;;;;21.00;2.10;;;7.40;94.50;;;;;;5092545;28;20044;-70
2022/02/07 05:54:41;;;;;;;17.55;2.08;;;7.30;94.40;;;;;;5077032;28;20113;-70
2022/02/07 05:57:26;;;;;;;7.97;1.50;;;7.40;94.40;;;;;;5106668;28;20047;-70
2022/02/07 06:00:32;;;;;;;21.88;2.92;;;7.30;94.40;;;;;;5065473;28;20095;-69
2022/02/07 06:03:05;;;;;;;25.83;5.10;;;7.30;94.40;;;;;;5099644;28;20035;-74
2022/02/07 06:05:36;;;;;;;22.02;2.70;;;7.30;94.40;;;;;;5081482;28;20039;-72
2022/02/07 06:08:07;;;;;;;22.08;3.65;;;7.30;94.30;;;;;;5112450;28;20490;-71
2022/02/07 06:10:33;;;;;;;19.90;3.38;;;7.30;94.20;;;;;;5110499;28;20035;-70
2022/02/07 06:12:59;;;;;;;18.02;3.53;;;7.20;94.20;;;;;;5100724;28;20028;-70
2022/02/07 06:15:27;;;;;;;19.27;2.38;;;7.20;94.20;;;;;;5109836;28;20034;-68
2022/02/07 06:17:57;;;;;;;13.15;2.08;;;7.20;94.50;;;;;;5100481;28;20052;-69
2022/02/07 06:20:25;;;;;;;28.50;4.35;;;7.20;94.30;;;;;;5106650;28;20036;-69
2022/02/07 06:22:51;;;;;;;36.78;6.03;;;7.20;94.20;;;;;;5105545;28;20391;-69
2022/02/07 06:25:18;;;;;;;39.17;5.75;;;7.20;94.20;;;;;;5108445;28;20019;-68
2022/02/07 06:27:45;;;;;;;32.10;4.75;;;7.20;94.20;;;;;;5106677;28;20031;-68
2022/02/07 06:30:17;;;;;;;33.85;5.45;;;7.20;94.50;;;;;;5111967;28;20028;-67
2022/02/07 06:32:43;;;;;;;37.28;4.82;;;7.20;94.20;;;;;;5111494;28;20030;-69
2022/02/07 06:35:09;;;;;;;25.60;5.95;;;7.20;94.20;;;;;;5101394;28;20383;-67
2022/02/07 06:37:37;;;;;;;32.47;4.57;;;7.20;94.00;;;;;;5102623;28;20045;-68
2022/02/07 06:40:05;;;;;;;26.88;4.57;;;7.20;93.70;;;;;;5098892;28;20028;-68
2022/02/07 06:42:31;;;;;;;21.17;3.92;;;7.10;93.70;;;;;;5096142;28;20033;-69
2022/02/07 06:44:58;;;;;;;16.75;2.72;;;7.10;93.60;;;;;;5101980;28;20039;-68
2022/02/07 06:47:25;;;;;;;12.75;2.25;;;7.10;93.70;;;;;;5092748;28;20489;-68
2022/02/07 06:49:51;;;;;;;20.92;4.45;;;7.00;94.10;;;;;;5103752;28;20032;-68
2022/02/07 06:52:17;;;;;;;23.67;4.75;;;7.00;94.10;;;;;;5093569;28;20016;-68
2022/02/07 06:54:42;;;;;;;10.95;2.17;;;7.00;93.90;;;;;;5082893;28;20388;-70
2022/02/07 06:57:09;;;;;;;8.45;2.10;;;7.00;94.00;;;;;;5095993;28;20532;-68
2022/02/07 06:59:41;;;;;;;19.27;3.38;;;7.00;94.00;;;;;;5110274;28;20020;-70
2022/02/07 07:02:10;;;;;;;;;;;6.90;93.80;;;;;;5102798;28;20032;-68
2022/02/07 07:04:36;;;;;;;21.92;4.30;;;7.00;93.90;;;;;;5099910;28;19908;-67
2022/02/07 07:07:03;;;;;;;15.65;2.47;;;6.90;93.60;;;;;;5090876;28;20031;-68
2022/02/07 07:09:34;;;;;;;20.13;2.60;;;6.90;93.70;;;;;;5092019;28;20040;-67
2022/02/07 07:12:03;;;;;;;13.80;3.42;;;6.90;93.70;;;;;;5090167;28;20020;-67
2022/02/07 07:14:52;;;;;;;29.02;4.00;;;6.90;93.00;;;;;;5080241;28;20039;-66
2022/02/07 07:17:19;;;;;;;21.17;3.53;;;6.90;92.80;;;;;;5105090;28;20500;-67
2022/02/07 07:19:47;;;;;;;30.83;5.32;;;6.80;92.50;;;;;;5091795;28;20063;-67
2022/02/07 07:22:14;;;;;;;20.05;3.05;;;6.90;92.40;;;;;;5092003;28;20064;-66
2022/02/07 07:24:42;;;;;;;6.18;1.65;;;6.90;92.10;;;;;;5091780;28;20122;-67
2022/02/07 07:27:09;;;;;;;22.15;3.63;;;6.90;92.30;;;;;;5089783;28;20377;-66
2022/02/07 07:29:40;;;;;;;19.70;3.38;;;6.90;92.50;;;;;;5091294;28;20087;-66
2022/02/07 07:32:09;;;;;;;30.20;5.25;;;6.90;92.20;;;;;;5103493;28;20437;-66
2022/02/07 07:34:38;;;;;;;21.67;3.53;;;6.90;92.00;;;;;;5093850;28;20040;-67
2022/02/07 07:37:10;;;;;;;36.63;5.50;;;6.90;91.90;;;;;;5091583;28;20031;-66
2022/02/07 07:39:36;;;;;;;34.10;3.97;;;6.90;92.10;;;;;;5088486;28;20154;-66
2022/02/07 07:42:04;;;;;;;38.42;4.93;;;7.00;91.90;;;;;;5108992;28;20030;-66
2022/02/07 07:44:57;;;;;;;22.05;4.15;;;7.00;92.20;;;;;;5088986;28;20057;-66
2022/02/07 07:47:34;;;;;;;39.35;5.50;;;7.00;92.50;;;;;;5106063;28;20497;-66
2022/02/07 07:51:03;;;;;;;26.52;5.00;;;7.00;92.30;;;;;;5109410;28;20118;-66
2022/02/07 08:04:12;;;;;;;31.10;4.70;;;7.20;92.90;;;;;;5087219;28;20498;-66
2022/02/07 08:06:55;;;;;;;14.38;2.63;;;7.20;92.60;;;;;;5084776;28;20032;-66
2022/02/07 08:12:03;;;;;;;37.55;5.18;;;7.20;91.50;;;;;;5088561;28;20052;-66
2022/02/07 08:14:35;;;;;;;28.13;4.10;;;7.20;90.70;;;;;;5090181;28;20051;-66
2022/02/07 08:17:05;;;;;;;12.90;2.65;;;7.10;90.10;;;;;;5088088;28;20026;-66
2022/02/07 08:19:32;;;;;;;19.92;3.83;;;7.10;90.70;;;;;;5091308;28;20509;-66
2022/02/07 08:22:01;;;;;;;35.85;6.40;;;7.10;90.60;;;;;;5090820;28;20036;-66
2022/02/07 08:24:29;;;;;;;34.47;4.30;;;7.20;90.60;;;;;;5090299;28;20115;-66
2022/02/07 08:26:55;;;;;;;29.45;4.80;;;7.20;90.70;;;;;;5073807;28;20039;-66
2022/02/07 08:29:22;;;;;;;31.35;4.18;;;7.20;90.80;;;;;;5083425;28;20048;-66
2022/02/07 08:31:48;;;;;;;37.88;5.05;;;7.20;90.60;;;;;;5103665;28;20391;-67
2022/02/07 08:34:13;;;;;;;28.50;4.93;;;7.20;90.50;;;;;;5090703;28;20032;-66
2022/02/07 08:36:39;;;;;;;15.13;3.97;;;7.20;90.70;;;;;;5108707;28;20381;-67
2022/02/07 08:39:05;;;;;;;25.10;4.15;;;7.20;90.30;;;;;;5109507;28;20024;-67
2022/02/07 08:41:35;;;;;;;28.98;4.78;;;7.20;90.50;;;;;;5104648;28;20375;-66
2022/02/07 08:44:00;;;;;;;33.08;5.95;;;7.30;90.30;;;;;;5098362;28;20041;-67
2022/02/07 08:46:26;;;;;;;20.25;5.55;;;7.30;90.60;;;;;;5089062;28;20028;-67
2022/02/07 08:48:52;;;;;;;18.48;2.65;;;7.30;90.80;;;;;;5091950;28;20044;-66
2022/02/07 08:51:19;;;;;;;24.17;3.47;;;7.30;90.80;;;;;;5091410;28;20044;-67
2022/02/07 08:53:46;;;;;;;24.52;4.07;;;7.40;91.20;;;;;;5091116;28;20399;-67
2022/02/07 08:56:14;;;;;;;8.88;2.28;;;7.40;91.10;;;;;;5086144;28;20036;-66
2022/02/07 08:58:44;;;;;;;12.43;1.85;;;7.40;91.70;;;;;;5092055;28;20388;-67
2022/02/07 09:01:21;;;;;;;13.98;3.00;;;7.40;91.90;;;;;;5079394;28;20371;-67
2022/02/07 09:06:39;;;;;;;22.38;3.47;;;7.40;92.60;;;;;;5087269;28;20119;-67
2022/02/07 09:09:08;;;;;;;12.05;1.92;;;7.40;92.90;;;;;;5098434;28;20044;-67
2022/02/07 09:11:34;;;;;;;31.65;3.03;;;7.40;93.20;;;;;;5100746;28;20032;-66
2022/02/07 09:14:08;;;;;;;19.77;4.25;;;7.40;93.20;;;;;;5090518;28;20044;-67
2022/02/07 09:16:39;;;;;;;8.68;2.55;;;7.40;93.50;;;;;;5093482;28;20025;-67
2022/02/07 09:19:05;;;;;;;12.63;3.65;;;7.40;93.60;;;;;;5102817;28;20041;-67
2022/02/07 09:21:31;;;;;;;17.00;3.30;;;7.40;93.90;;;;;;5100566;28;20371;-67
2022/02/07 09:23:58;;;;;;;32.58;3.30;;;7.40;94.00;;;;;;5103877;28;20035;-67
2022/02/07 09:26:24;;;;;;;20.42;4.03;;;7.40;94.10;;;;;;5102900;28;20111;-67
2022/02/07 09:28:50;;;;;;;20.83;3.05;;;7.40;94.30;;;;;;5111708;28;20161;-66
2022/02/07 09:31:18;;;;;;;26.15;3.35;;;7.40;94.50;;;;;;5096133;27;20115;-67
2022/02/07 09:33:44;;;;;;;29.88;3.00;;;7.50;94.60;;;;;;5107008;28;20027;-67
2022/02/07 09:36:12;;;;;;;22.70;3.58;;;7.40;94.70;;;;;;5081769;28;20388;-67
2022/02/07 09:38:38;;;;;;;13.10;2.45;;;7.40;94.80;;;;;;5095070;28;20036;-67
2022/02/07 09:41:05;;;;;;;8.88;2.10;;;7.40;94.90;;;;;;5095266;28;20400;-67
2022/02/07 09:43:33;;;;;;;16.20;3.70;;;7.50;95.00;;;;;;5103921;28;20059;-67
2022/02/07 09:46:08;;;;;;;18.10;3.90;;;7.50;95.10;;;;;;5085473;28;20472;-67
2022/02/07 09:48:40;;;;;;;11.23;2.40;;;7.50;95.30;;;;;;5111747;28;20051;-67
2022/02/07 09:51:10;;;;;;;26.20;3.53;;;7.50;94.90;;;;;;5100513;28;20028;-67
2022/02/07 09:53:37;;;;;;;25.60;3.83;;;7.50;94.50;;;;;;5095027;28;20028;-67
2022/02/07 09:56:05;;;;;;;24.75;2.50;;;7.50;94.40;;;;;;5089668;28;20095;-66
2022/02/07 09:58:37;;;;;;;22.52;3.35;;;7.60;94.40;;;;;;5086312;28;20031;-67
2022/02/07 10:01:07;;;;;;;9.68;2.33;;;7.70;94.50;;;;;;5079657;28;20384;-67
2022/02/07 10:04:01;;;;;;;15.65;3.47;;;7.70;94.70;;;;;;5105527;28;20130;-67
2022/02/07 10:09:22;;;;;;;32.50;4.50;;;7.70;95.00;;;;;;5094321;28;20093;-66
2022/02/07 10:12:25;;;;;;;11.18;2.35;;;7.80;95.20;;;;;;5093810;28;20403;-66
2022/02/07 10:18:16;;;;;;;14.52;2.53;;;7.80;95.30;;;;;;5042619;28;20033;-68
2022/02/07 10:40:23;;;;;;;17.00;3.08;;;7.90;96.10;;;;;;5093556;28;20067;-67
2022/02/07 10:43:10;;;;;;;9.68;2.60;;;7.90;96.10;;;;;;5094208;28;20036;-67
2022/02/07 10:46:01;;;;;;;19.85;3.92;;;7.90;96.10;;;;;;5093350;28;20035;-66
2022/02/07 10:48:48;;;;;;;24.63;4.53;;;7.90;96.20;;;;;;5107084;28;20044;-67
2022/02/07 10:51:31;;;;;;;14.27;2.30;;;8.00;96.00;;;;;;5093358;28;20028;-66
2022/02/07 10:53:57;;;;;;;10.60;1.93;;;8.10;95.70;;;;;;5090922;28;20063;-66
2022/02/07 10:56:30;;;;;;;11.40;1.83;;;8.10;95.30;;;;;;5095935;28;20067;-66
2022/02/07 10:58:57;;;;;;;11.63;1.92;;;8.20;95.30;;;;;;5109852;28;20035;-67
2022/02/07 11:04:13;;;;;;;15.88;2.55;;;8.30;95.20;;;;;;5108938;28;20035;-66
2022/02/07 11:06:43;;;;;;;12.25;2.67;;;8.30;95.30;;;;;;5109541;28;20027;-66
2022/02/07 11:09:33;;;;;;;23.67;4.18;;;8.40;95.40;;;;;;5110231;28;20039;-66
2022/02/07 11:20:14;;;;;;;21.92;3.40;;;8.40;95.90;;;;;;5099981;28;20053;-67
2022/02/07 11:22:46;;;;;;;11.40;2.70;;;8.30;95.90;;;;;;5112483;28;20088;-68
2022/02/07 11:25:28;;;;;;;23.13;3.38;;;8.30;96.00;;;;;;5090414;28;20024;-68
2022/02/07 11:27:57;;;;;;;24.95;4.57;;;8.40;96.10;;;;;;5087953;28;20187;-68
2022/02/07 11:30:35;;;;;;;20.23;2.53;;;8.40;96.00;;;;;;5110123;28;20032;-67
2022/02/07 11:33:02;;;;;;;19.92;3.60;;;8.40;96.10;;;;;;5101276;28;20023;-67
2022/02/07 11:35:33;;;;;;;14.30;2.75;;;8.50;95.90;;;;;;5109090;28;20194;-67
2022/02/07 11:38:02;;;;;;;17.33;3.25;;;8.50;96.10;;;;;;5102324;28;20039;-67
2022/02/07 11:40:43;;;;;;;25.58;3.97;;;8.60;96.10;;;;;;5090099;28;20032;-67
2022/02/07 11:43:12;;;;;;;24.23;2.70;;;8.60;95.80;;;;;;5105346;28;20055;-67
2022/02/07 11:46:03;;;;;;;19.75;3.53;;;8.70;96.10;;;;;;5079596;28;20063;-67
2022/02/07 11:48:32;;;;;;;17.65;2.58;;;8.70;95.90;;;;;;5091835;28;20048;-68
2022/02/07 11:51:01;;;;;;;20.15;5.00;;;8.80;96.00;;;;;;5092099;28;20063;-67
2022/02/07 11:53:34;;;;;;;12.45;2.63;;;8.80;95.80;;;;;;5092838;28;20023;-67
2022/02/07 11:56:54;;;;;;;13.75;3.10;;;8.80;96.10;;;;;;5091022;28;20051;-67
2022/02/07 12:02:07;;;;;;;23.58;3.70;;;8.90;95.80;;;;;;5092215;28;20136;-68
2022/02/07 12:04:38;;;;;;;17.40;3.72;;;8.90;95.70;;;;;;5088538;28;20120;-68
2022/02/07 12:07:19;;;;;;;13.90;2.60;;;8.90;95.90;;;;;;5086261;28;20073;-68
2022/02/07 12:12:44;;;;;;;21.50;3.15;;;9.00;96.10;;;;;;5097658;28;20035;-68
2022/02/07 12:15:15;;;;;;;18.85;2.97;;;9.00;95.90;;;;;;5099085;28;20029;-67
2022/02/07 12:17:47;;;;;;;31.30;5.18;;;9.10;96.00;;;;;;5102806;28;20028;-69
2022/02/07 12:20:16;;;;;;;15.65;2.70;;;9.10;95.60;;;;;;5091841;28;20490;-67
2022/02/07 12:22:54;;;;;;;21.83;3.05;;;9.10;95.90;;;;;;5105330;28;20024;-68
2022/02/07 12:25:34;;;;;;;33.53;4.43;;;9.10;95.80;;;;;;5104529;28;20130;-73
2022/02/07 12:28:04;;;;;;;17.25;3.42;;;9.10;95.60;;;;;;5087791;28;20153;-68
2022/02/07 12:30:32;;;;;;;18.70;2.97;;;9.20;94.40;;;;;;5091353;28;20047;-67
2022/02/07 12:33:04;;;;;;;15.52;3.45;;;9.20;95.40;;;;;;5091204;28;20138;-67
2022/02/07 12:35:30;;;;;;;16.85;3.13;;;9.30;95.60;;;;;;5092144;28;20035;-67
2022/02/07 12:37:56;;;;;;;22.50;2.92;;;9.30;95.70;;;;;;5091030;28;20028;-67
2022/02/07 12:40:23;;;;;;;17.30;3.55;;;9.30;95.40;;;;;;5098846;28;20451;-67
2022/02/07 12:42:53;;;;;;;32.67;5.32;;;9.40;95.60;;;;;;5098671;28;20116;-68
2022/02/07 12:45:25;;;;;;;21.77;3.13;;;9.30;95.60;;;;;;5103345;28;20044;-67
2022/02/07 12:47:56;;;;;;;17.05;3.25;;;9.40;95.40;;;;;;5092011;28;20360;-68
2022/02/07 12:50:26;;;;;;;19.48;3.67;;;9.40;95.50;;;;;;5092078;28;20113;-67
2022/02/07 12:52:55;;;;;;;15.63;3.15;;;9.40;95.40;;;;;;5108474;28;20039;-67
2022/02/07 12:55:20;;;;;;;17.58;3.25;;;9.40;95.60;;;;;;5094609;28;20085;-68
2022/02/07 12:57:46;;;;;;;10.75;3.30;;;9.50;95.20;;;;;;5095409;28;20495;-68
2022/02/07 13:00:21;;;;;;;13.93;3.22;;;9.50;95.60;;;;;;5095528;28;20027;-68
2022/02/07 13:02:49;;;;;;;11.82;2.13;;;9.60;95.50;;;;;;5095739;28;20039;-68
2022/02/07 13:05:20;;;;;;;15.77;2.65;;;9.60;95.80;;;;;;5083514;28;20051;-68
2022/02/07 13:07:49;;;;;;;18.02;3.95;;;9.60;95.50;;;;;;5109380;28;20031;-68
2022/02/07 13:10:22;;;;;;;12.38;2.05;;;9.70;95.80;;;;;;5109173;28;20027;-70
2022/02/07 13:15:18;;;;;;;20.30;4.05;;;9.70;95.50;;;;;;5095456;28;20133;-67
2022/02/07 13:17:49;;;;;;;15.45;3.05;;;9.80;95.30;;;;;;5087569;28;20387;-67
2022/02/07 13:20:18;;;;;;;10.82;2.10;;;9.80;95.50;;;;;;5087687;28;20054;-68
2022/02/07 13:22:44;;;;;;;21.88;3.92;;;9.80;95.50;;;;;;5086376;28;20024;-67
2022/02/07 13:25:10;;;;;;;23.60;4.30;;;9.90;95.10;;;;;;5095425;28;20087;-67
2022/02/07 13:27:40;;;;;;;17.50;3.05;;;9.90;95.30;;;;;;5105487;28;20093;-67
2022/02/07 13:30:11;;;;;;;13.27;2.80;;;9.90;95.60;;;;;;5091578;28;20400;-67
2022/02/07 13:32:38;;;;;;;26.88;3.60;;;9.90;95.70;;;;;;5087969;28;20048;-69
2022/02/07 13:35:14;;;;;;;20.08;2.85;;;10.00;95.30;;;;;;5108012;28;20066;-67
2022/02/07 13:37:41;;;;;;;24.65;3.50;;;10.00;95.80;;;;;;5094745;28;20036;-69
2022/02/07 13:40:17;;;;;;;13.18;2.63;;;10.00;95.50;;;;;;5095374;28;20020;-67
2022/02/07 13:42:51;;;;;;;24.20;3.38;;;10.10;95.20;;;;;;5098048;28;20055;-67
2022/02/07 13:45:19;;;;;;;13.57;2.22;;;10.20;95.50;;;;;;5112291;28;20020;-66
2022/02/07 13:47:51;;;;;;;28.55;4.35;;;10.10;95.40;;;;;;5097586;28;20052;-68
2022/02/07 13:50:27;;;;;;;12.00;2.70;;;10.10;94.60;;;;;;5106519;28;20036;-68
2022/02/07 13:52:55;;;;;;;22.05;3.47;;;10.20;94.80;;;;;;5100722;28;20080;-68
2022/02/07 13:55:25;;;;;;;10.52;2.58;;;10.20;95.00;;;;;;5102449;28;20512;-68
2022/02/07 13:58:03;;;;;;;18.08;3.25;;;10.10;95.00;;;;;;5114674;28;20059;-68
2022/02/07 14:00:31;;;;;;;16.00;2.88;;;10.20;95.10;;;;;;5075569;28;20074;-67
2022/02/07 14:03:20;;;;;;;10.05;1.92;;;10.20;95.30;;;;;;5092367;28;20153;-67
2022/02/07 14:05:49;;;;;;;20.75;3.38;;;10.20;95.50;;;;;;5110361;28;20031;-68
2022/02/07 14:08:16;;;;;;;11.93;2.88;;;10.30;94.90;;;;;;5105959;28;20039;-68
2022/02/07 14:10:44;;;;;;;18.60;2.85;;;10.30;94.80;;;;;;5104447;28;20383;-68
2022/02/07 14:13:15;;;;;;;18.80;3.38;;;10.30;95.00;;;;;;5109761;28;20028;-68
2022/02/07 14:15:43;;;;;;;6.72;1.70;;;10.30;94.60;;;;;;5104255;28;20069;-68
2022/02/07 14:18:11;;;;;;;22.00;2.83;;;10.30;95.00;;;;;;5107840;28;20047;-67
2022/02/07 14:20:37;;;;;;;17.48;3.50;;;10.30;94.50;;;;;;5106006;28;20097;-67
2022/02/07 14:23:07;;;;;;;21.20;3.20;;;10.30;94.30;;;;;;5104791;28;20031;-67
2022/02/07 14:25:33;;;;;;;10.25;2.20;;;10.40;93.40;;;;;;5108633;28;20035;-67
2022/02/07 14:28:01;;;;;;;20.50;3.13;;;10.40;94.40;;;;;;5106387;28;20035;-69
2022/02/07 14:30:30;;;;;;;9.55;2.28;;;10.40;94.90;;;;;;5104584;28;20028;-68
2022/02/07 14:32:58;;;;;;;15.35;2.90;;;10.40;95.00;;;;;;5105149;28;20111;-68
2022/02/07 14:35:24;;;;;;;8.68;1.90;;;10.40;94.70;;;;;;5108505;28;20038;-68
2022/02/07 14:37:50;;;;;;;16.55;3.95;;;10.40;94.60;;;;;;5110271;28;20067;-69
2022/02/07 14:40:16;;;;;;;11.38;2.60;;;10.40;93.00;;;;;;5096622;28;20078;-70
2022/02/07 14:42:42;;;;;;;18.75;2.75;;;10.40;94.00;;;;;;5093229;28;20028;-70
2022/02/07 14:45:13;;;;;;;13.95;3.08;;;10.40;94.50;;;;;;5104875;28;20075;-69
2022/02/07 14:50:13;;;;;;;9.35;2.05;;;10.40;94.40;;;;;;5100744;28;20495;-70
2022/02/07 14:52:39;;;;;;;10.73;2.85;;;10.40;94.20;;;;;;5100506;28;20766;-69
2022/02/07 14:55:06;;;;;;;11.15;2.35;;;10.40;94.50;;;;;;5108867;28;20415;-71
2022/02/07 14:57:32;;;;;;;9.65;2.10;;;10.40;93.80;;;;;;5105966;28;20071;-69
2022/02/07 14:59:58;;;;;;;14.75;2.53;;;10.40;94.50;;;;;;5108974;28;20028;-68
2022/02/07 15:02:24;;;;;;;13.85;2.55;;;10.40;94.50;;;;;;5110530;28;20474;-68
2022/02/07 15:04:52;;;;;;;14.82;2.67;;;10.40;94.70;;;;;;5101447;28;20066;-68
2022/02/07 15:07:19;;;;;;;7.63;1.98;;;10.40;94.40;;;;;;5107119;28;20067;-69
2022/02/07 15:09:45;;;;;;;9.30;1.42;;;10.30;94.30;;;;;;5104437;28;20085;-69
2022/02/07 15:12:11;;;;;;;15.52;2.97;;;10.40;94.40;;;;;;5108386;28;20027;-69
2022/02/07 15:14:39;;;;;;;17.80;1.92;;;10.30;94.00;;;;;;5112293;28;20028;-70
2022/02/07 15:17:05;;;;;;;12.93;2.40;;;10.30;94.30;;;;;;5108563;28;20046;-67
2022/02/07 15:19:31;;;;;;;5.28;1.13;;;10.30;94.20;;;;;;5105088;28;20467;-68
2022/02/07 15:21:56;;;;;;;9.32;2.15;;;10.30;94.30;;;;;;5106995;28;20019;-68
2022/02/07 15:24:24;;;;;;;1.25;0.85;;;10.30;94.30;;;;;;5103186;28;20035;-68
2022/02/07 15:26:50;;;;;;;5.68;1.30;;;10.30;94.30;;;;;;5100150;28;20092;-68
2022/02/07 15:29:17;;;;;;;6.95;1.55;;;10.30;94.30;;;;;;5106770;28;20126;-68
2022/02/07 15:31:48;;;;;;;4.35;1.42;;;10.30;94.30;;;;;;5110021;28;20386;-68